Time;durP1;ratioP1;P1;durP2;ratioP2;P2;SDS_P1;SDS_P2;PMS_P1;PMS_P2;Temp;Humidity;BMP_temperature;BMP_pressure;BME280_temperature;BME280_humidity;BME280_pressure;Samples;Min_cycle;Max_cycle;Signal;HPM_P1;HPM_P2
2023/05/17 00:01:41;;;;;;;7.00;2.40;;;11.70;99.90;;;;;;4175084;28;20124;-60
2023/05/17 00:03:42;;;;;;;8.25;2.55;;;11.70;99.90;;;;;;4177031;28;20041;-60
2023/05/17 00:05:42;;;;;;;7.25;2.10;;;11.70;99.90;;;;;;4175426;28;20399;-60
2023/05/17 00:07:43;;;;;;;5.20;2.40;;;11.60;99.90;;;;;;4176500;28;20029;-61
2023/05/17 00:09:43;;;;;;;6.22;2.55;;;11.60;99.90;;;;;;4174565;28;20033;-61
2023/05/17 00:11:44;;;;;;;6.90;2.42;;;11.60;99.90;;;;;;4174759;28;20036;-60
2023/05/17 00:13:44;;;;;;;6.47;2.30;;;11.60;99.90;;;;;;4177441;28;20036;-60
2023/05/17 00:15:45;;;;;;;8.18;2.50;;;11.60;99.90;;;;;;4174708;28;20041;-60
2023/05/17 00:17:45;;;;;;;5.00;2.40;;;11.60;99.90;;;;;;4176684;28;20052;-60
2023/05/17 00:19:46;;;;;;;4.55;2.35;;;11.60;99.90;;;;;;4176537;28;20044;-60
2023/05/17 00:21:47;;;;;;;8.35;2.65;;;11.60;99.90;;;;;;4174787;28;20037;-60
2023/05/17 00:23:47;;;;;;;8.23;2.40;;;11.60;99.90;;;;;;4174871;28;20080;-60
2023/05/17 00:25:48;;;;;;;5.43;2.00;;;11.60;99.90;;;;;;4176436;28;20037;-61
2023/05/17 00:27:48;;;;;;;6.00;2.60;;;11.50;99.90;;;;;;4176971;28;20040;-60
2023/05/17 00:29:49;;;;;;;10.57;3.10;;;11.50;99.90;;;;;;4176631;28;20090;-60
2023/05/17 00:31:49;;;;;;;7.75;2.92;;;11.40;99.90;;;;;;4175009;28;20025;-60
2023/05/17 00:33:50;;;;;;;6.28;2.72;;;11.40;99.90;;;;;;4177140;28;20037;-60
2023/05/17 00:35:51;;;;;;;10.43;3.30;;;11.40;99.90;;;;;;4174968;28;20055;-60
2023/05/17 00:37:51;;;;;;;7.95;3.17;;;11.40;99.90;;;;;;4177078;28;20044;-61
2023/05/17 00:39:52;;;;;;;7.32;2.63;;;11.30;99.90;;;;;;4171385;28;20037;-60
2023/05/17 00:41:53;;;;;;;8.10;3.15;;;11.30;99.90;;;;;;4174248;28;20028;-60
2023/05/17 00:43:54;;;;;;;7.38;2.50;;;11.30;99.90;;;;;;4172801;28;20064;-61
2023/05/17 00:45:54;;;;;;;9.35;3.00;;;11.30;99.90;;;;;;4174333;28;20071;-60
2023/05/17 00:47:55;;;;;;;7.65;3.25;;;11.30;99.90;;;;;;4175107;28;20025;-60
2023/05/17 00:49:55;;;;;;;7.82;2.50;;;11.20;99.90;;;;;;4177156;28;20041;-60
2023/05/17 00:51:57;;;;;;;9.27;2.90;;;11.20;99.90;;;;;;4173397;28;20025;-62
2023/05/17 00:53:57;;;;;;;6.68;2.97;;;11.20;99.90;;;;;;4174494;28;20037;-61
2023/05/17 00:55:59;;;;;;;11.85;3.50;;;11.20;99.90;;;;;;4175924;28;20035;-60
2023/05/17 00:58:00;;;;;;;9.23;2.88;;;11.10;99.90;;;;;;4175961;28;20040;-61
2023/05/17 01:00:01;;;;;;;9.15;3.20;;;11.10;99.90;;;;;;4173431;28;20100;-60
2023/05/17 01:02:03;;;;;;;6.50;2.65;;;11.10;99.90;;;;;;4174047;28;20479;-60
2023/05/17 01:04:03;;;;;;;6.57;2.88;;;11.20;99.90;;;;;;4175872;28;20487;-60
2023/05/17 01:06:05;;;;;;;6.55;2.92;;;11.10;99.90;;;;;;4175286;28;20041;-62
2023/05/17 01:08:05;;;;;;;7.80;3.30;;;11.20;99.90;;;;;;4175445;28;20162;-61
2023/05/17 01:10:07;;;;;;;11.98;3.20;;;11.20;99.90;;;;;;4175241;28;20037;-61
2023/05/17 01:12:39;;;;;;;11.00;3.10;;;11.00;99.90;;;;;;4170303;28;20388;-60
2023/05/17 01:14:52;;;;;;;7.93;3.00;;;11.00;99.90;;;;;;4171393;28;20037;-60
2023/05/17 01:17:01;;;;;;;11.48;3.78;;;11.00;99.90;;;;;;4172029;28;20033;-60
2023/05/17 01:19:23;;;;;;;13.43;3.38;;;11.10;99.90;;;;;;4170077;28;20124;-60
2023/05/17 01:21:34;;;;;;;11.05;3.28;;;11.10;99.90;;;;;;4172649;28;20033;-60
2023/05/17 01:24:15;;;;;;;5.32;2.15;;;11.10;99.90;;;;;;4175410;28;20041;-61
2023/05/17 01:26:22;;;;;;;8.43;2.88;;;11.10;99.90;;;;;;4168685;28;20051;-60
2023/05/17 01:28:25;;;;;;;13.57;3.47;;;11.10;99.90;;;;;;4170433;28;20044;-60
2023/05/17 01:30:28;;;;;;;10.25;3.53;;;11.10;99.90;;;;;;4172676;28;20099;-60
2023/05/17 01:32:31;;;;;;;9.02;2.70;;;11.10;99.90;;;;;;4174140;28;20082;-61
2023/05/17 01:34:34;;;;;;;8.63;2.97;;;11.10;99.90;;;;;;4173623;28;20044;-60
2023/05/17 01:36:37;;;;;;;9.38;3.10;;;11.00;99.90;;;;;;4174056;28;20031;-63
2023/05/17 01:38:38;;;;;;;7.45;3.08;;;11.00;99.90;;;;;;4173140;28;20021;-61
2023/05/17 01:41:01;;;;;;;9.68;2.53;;;11.00;99.90;;;;;;4175727;28;20552;-60
2023/05/17 01:43:22;;;;;;;11.90;3.35;;;11.00;99.90;;;;;;4165222;28;20053;-60
2023/05/17 01:45:33;;;;;;;7.40;2.88;;;11.10;99.90;;;;;;4176204;28;20038;-60
2023/05/17 01:47:55;;;;;;;8.85;3.40;;;11.10;99.90;;;;;;4174731;28;20025;-60
2023/05/17 01:49:58;;;;;;;8.82;3.10;;;11.10;99.90;;;;;;4172797;28;20029;-60
2023/05/17 01:52:12;;;;;;;7.55;3.10;;;11.10;99.90;;;;;;4175937;28;20033;-61
2023/05/17 01:54:15;;;;;;;11.60;3.78;;;11.10;99.90;;;;;;4175754;28;20036;-60
2023/05/17 01:56:21;;;;;;;12.43;3.95;;;11.00;99.90;;;;;;4173604;28;20029;-60
2023/05/17 01:58:24;;;;;;;11.15;4.00;;;11.00;99.90;;;;;;4169394;28;20395;-60
2023/05/17 02:00:28;;;;;;;12.57;3.72;;;11.00;99.90;;;;;;4174060;28;20040;-60
2023/05/17 02:02:29;;;;;;;9.25;3.63;;;11.00;99.90;;;;;;4176426;28;20037;-60
2023/05/17 02:04:29;;;;;;;13.75;3.40;;;10.90;99.90;;;;;;4176682;28;20123;-60
2023/05/17 02:06:30;;;;;;;12.02;3.47;;;10.90;99.90;;;;;;4174505;28;20036;-60
2023/05/17 02:08:31;;;;;;;10.60;3.20;;;10.90;99.90;;;;;;4174911;28;20492;-60
2023/05/17 02:10:31;;;;;;;6.35;2.70;;;10.90;99.90;;;;;;4176179;28;20384;-60
2023/05/17 02:12:32;;;;;;;6.13;2.78;;;10.90;99.90;;;;;;4178039;28;20037;-60
2023/05/17 02:14:32;;;;;;;11.38;3.20;;;10.90;99.90;;;;;;4175233;28;20044;-60
2023/05/17 02:16:33;;;;;;;8.35;2.80;;;10.90;99.90;;;;;;4174999;28;20496;-60
2023/05/17 02:18:34;;;;;;;15.80;4.55;;;10.90;99.90;;;;;;4173372;28;20044;-61
2023/05/17 02:20:34;;;;;;;12.25;3.58;;;11.00;99.90;;;;;;4176812;28;20052;-60
2023/05/17 02:22:35;;;;;;;8.77;3.20;;;10.90;99.90;;;;;;4174063;28;20037;-62
2023/05/17 02:24:36;;;;;;;11.10;3.70;;;10.90;99.90;;;;;;4174766;28;20090;-60
2023/05/17 02:26:37;;;;;;;7.43;2.95;;;10.90;99.90;;;;;;4164275;28;20049;-61
2023/05/17 02:28:37;;;;;;;7.72;3.00;;;10.90;99.90;;;;;;4165228;28;20048;-60
2023/05/17 02:30:41;;;;;;;7.97;3.03;;;10.80;99.90;;;;;;4163802;28;20036;-61
2023/05/17 02:32:42;;;;;;;9.80;2.90;;;10.80;99.90;;;;;;4177636;28;20048;-61
2023/05/17 02:34:42;;;;;;;8.88;3.25;;;10.80;99.90;;;;;;4175023;28;20450;-60
2023/05/17 02:36:43;;;;;;;10.25;3.00;;;10.80;99.90;;;;;;4177230;28;20116;-60
2023/05/17 02:38:44;;;;;;;9.90;3.45;;;10.80;99.90;;;;;;4178503;28;20047;-60
2023/05/17 02:40:44;;;;;;;11.07;3.63;;;10.80;99.90;;;;;;4177371;28;20040;-60
2023/05/17 02:42:45;;;;;;;8.50;2.75;;;10.80;99.90;;;;;;4171498;28;20037;-60
2023/05/17 02:44:47;;;;;;;8.02;3.00;;;10.80;99.90;;;;;;4170442;28;20494;-60
2023/05/17 02:46:48;;;;;;;6.80;2.75;;;10.90;99.90;;;;;;4171780;28;20037;-60
2023/05/17 02:48:48;;;;;;;12.95;3.65;;;10.90;99.90;;;;;;4175352;28;20044;-60
2023/05/17 02:50:49;;;;;;;8.80;2.95;;;10.90;99.90;;;;;;4177439;28;20037;-60
2023/05/17 02:52:49;;;;;;;5.07;2.28;;;10.90;99.90;;;;;;4165326;28;20047;-60
2023/05/17 02:54:50;;;;;;;6.45;2.50;;;10.90;99.90;;;;;;4162277;28;20044;-60
2023/05/17 02:56:51;;;;;;;9.40;2.75;;;10.90;99.90;;;;;;4163894;28;20095;-60
2023/05/17 02:58:51;;;;;;;8.15;3.00;;;10.90;99.90;;;;;;4165961;28;20040;-60
2023/05/17 03:00:52;;;;;;;7.03;2.78;;;10.90;99.90;;;;;;4166838;28;20515;-60
2023/05/17 03:02:52;;;;;;;8.15;3.20;;;11.00;99.90;;;;;;4162010;28;20032;-60
2023/05/17 03:04:53;;;;;;;7.43;3.40;;;10.90;99.90;;;;;;4164304;28;20061;-60
2023/05/17 03:06:54;;;;;;;9.30;3.03;;;11.00;99.90;;;;;;4162220;28;20086;-60
2023/05/17 03:08:55;;;;;;;6.63;2.90;;;10.90;99.90;;;;;;4162748;28;20041;-60
2023/05/17 03:10:55;;;;;;;5.70;2.58;;;11.00;99.90;;;;;;4162818;28;20067;-60
2023/05/17 03:12:56;;;;;;;5.28;2.45;;;11.00;99.90;;;;;;4164730;28;20045;-60
2023/05/17 03:14:57;;;;;;;7.65;2.85;;;11.00;99.90;;;;;;4162864;28;20160;-60
2023/05/17 03:16:57;;;;;;;6.07;3.10;;;11.00;99.90;;;;;;4164365;28;20040;-60
2023/05/17 03:18:58;;;;;;;8.80;2.78;;;11.00;99.90;;;;;;4161776;28;20046;-60
2023/05/17 03:20:58;;;;;;;4.57;2.60;;;11.00;99.90;;;;;;4161400;28;20033;-60
2023/05/17 03:22:59;;;;;;;6.45;2.65;;;11.00;99.90;;;;;;4169157;28;20037;-60
2023/05/17 03:24:59;;;;;;;8.32;2.75;;;11.00;99.90;;;;;;4175860;28;20051;-61
2023/05/17 03:27:00;;;;;;;8.60;2.80;;;11.00;99.90;;;;;;4175364;28;20052;-61
2023/05/17 03:29:01;;;;;;;10.07;2.85;;;11.00;99.90;;;;;;4173980;28;20029;-61
2023/05/17 03:31:01;;;;;;;9.07;2.75;;;11.00;99.90;;;;;;4175531;28;20025;-60
2023/05/17 03:33:02;;;;;;;6.88;3.20;;;11.00;99.90;;;;;;4174473;28;20435;-60
2023/05/17 03:35:03;;;;;;;6.88;3.30;;;11.00;99.90;;;;;;4172839;28;20132;-61
2023/05/17 03:37:04;;;;;;;6.97;2.80;;;11.10;99.90;;;;;;4175962;28;20112;-60
2023/05/17 03:39:04;;;;;;;9.63;4.20;;;11.10;99.90;;;;;;4176819;28;20056;-60
2023/05/17 03:41:05;;;;;;;9.63;3.67;;;11.10;99.90;;;;;;4176206;28;20033;-60
2023/05/17 03:43:06;;;;;;;8.18;3.35;;;11.10;99.90;;;;;;4173526;28;20036;-60
2023/05/17 03:45:07;;;;;;;7.88;3.13;;;11.10;99.90;;;;;;4171534;28;20037;-62
2023/05/17 03:47:07;;;;;;;7.20;3.28;;;11.10;99.90;;;;;;4176045;28;20059;-60
2023/05/17 03:49:08;;;;;;;9.02;3.65;;;11.20;99.90;;;;;;4174553;28;20041;-60
2023/05/17 03:51:08;;;;;;;12.13;4.43;;;11.20;99.90;;;;;;4171863;28;20040;-60
2023/05/17 03:53:09;;;;;;;6.22;3.35;;;11.20;99.90;;;;;;4176125;28;20036;-60
2023/05/17 03:55:10;;;;;;;8.05;3.80;;;11.20;99.90;;;;;;4174488;28;20032;-61
2023/05/17 03:57:10;;;;;;;9.70;3.60;;;11.20;99.90;;;;;;4176253;28;20123;-60
2023/05/17 03:59:12;;;;;;;9.50;3.25;;;11.20;99.90;;;;;;4174918;28;20040;-60
2023/05/17 04:01:12;;;;;;;8.45;4.07;;;11.20;99.90;;;;;;4172435;28;20029;-60
2023/05/17 04:03:13;;;;;;;13.43;3.80;;;11.20;99.90;;;;;;4175734;28;20072;-61
2023/05/17 04:05:14;;;;;;;10.82;3.88;;;11.20;99.90;;;;;;4171594;28;20029;-61
2023/05/17 04:07:15;;;;;;;11.98;4.15;;;11.20;99.90;;;;;;4174426;28;20409;-60
2023/05/17 04:09:16;;;;;;;10.10;4.55;;;11.20;99.90;;;;;;4176156;28;20067;-60
2023/05/17 04:11:22;;;;;;;9.35;4.18;;;11.20;99.90;;;;;;4173179;28;20029;-60
2023/05/17 04:13:22;;;;;;;7.20;3.88;;;11.20;99.90;;;;;;4175960;28;20123;-60
2023/05/17 04:15:23;;;;;;;9.32;4.38;;;11.30;99.90;;;;;;4173489;28;20531;-60
2023/05/17 04:17:24;;;;;;;13.80;5.18;;;11.30;99.90;;;;;;4174924;28;20353;-60
2023/05/17 04:19:24;;;;;;;12.13;4.70;;;11.30;99.90;;;;;;4176212;28;20437;-61
2023/05/17 04:21:25;;;;;;;9.38;4.38;;;11.30;99.90;;;;;;4174343;28;20037;-60
2023/05/17 04:23:25;;;;;;;14.23;4.93;;;11.30;99.90;;;;;;4173569;28;20365;-60
2023/05/17 04:25:26;;;;;;;8.27;4.03;;;11.40;99.90;;;;;;4174306;28;21957;-60
2023/05/17 04:27:27;;;;;;;9.95;4.57;;;11.40;99.90;;;;;;4175271;28;20044;-60
2023/05/17 04:29:27;;;;;;;13.63;6.10;;;11.40;99.90;;;;;;4175854;28;20037;-60
2023/05/17 04:31:28;;;;;;;11.80;5.85;;;11.40;99.90;;;;;;4173326;28;20021;-60
2023/05/17 04:33:28;;;;;;;14.50;5.05;;;11.40;99.90;;;;;;4174201;28;20025;-60
2023/05/17 04:35:29;;;;;;;11.38;5.18;;;11.40;99.90;;;;;;4174872;28;20488;-60
2023/05/17 04:37:29;;;;;;;16.58;5.28;;;11.40;99.90;;;;;;4175811;28;20033;-62
2023/05/17 04:39:30;;;;;;;11.77;4.72;;;11.40;99.90;;;;;;4173565;28;20098;-61
2023/05/17 04:41:31;;;;;;;11.35;4.50;;;11.40;99.90;;;;;;4173487;28;20044;-61
2023/05/17 04:43:32;;;;;;;14.80;6.15;;;11.40;99.90;;;;;;4175638;28;20033;-60
2023/05/17 04:45:33;;;;;;;14.70;5.55;;;11.50;99.90;;;;;;4172894;28;20025;-63
2023/05/17 04:47:34;;;;;;;17.75;6.85;;;11.40;99.90;;;;;;4175050;28;20032;-60
2023/05/17 04:49:34;;;;;;;12.80;5.28;;;11.40;99.90;;;;;;4174508;28;20037;-61
2023/05/17 04:51:35;;;;;;;10.50;4.97;;;11.40;99.90;;;;;;4172379;28;20387;-60
2023/05/17 04:53:36;;;;;;;12.70;4.70;;;11.40;99.90;;;;;;4173937;28;20033;-60
2023/05/17 04:55:36;;;;;;;13.35;5.18;;;11.40;99.90;;;;;;4172767;28;20037;-61
2023/05/17 04:57:37;;;;;;;10.57;5.18;;;11.40;99.90;;;;;;4173136;28;20060;-61
2023/05/17 04:59:37;;;;;;;13.43;5.28;;;11.40;99.90;;;;;;4174543;28;20037;-62
2023/05/17 05:01:38;;;;;;;11.43;5.32;;;11.40;99.90;;;;;;4172501;28;20384;-61
2023/05/17 05:03:39;;;;;;;17.42;6.55;;;11.40;99.90;;;;;;4173876;28;20048;-61
2023/05/17 05:05:39;;;;;;;12.23;5.28;;;11.40;99.90;;;;;;4173528;28;20116;-61
2023/05/17 05:07:40;;;;;;;8.73;4.90;;;11.40;99.90;;;;;;4174206;28;20064;-61
2023/05/17 05:09:40;;;;;;;13.60;5.78;;;11.40;99.90;;;;;;4175538;28;20508;-61
2023/05/17 05:11:41;;;;;;;11.25;5.10;;;11.50;99.90;;;;;;4170070;28;20119;-60
2023/05/17 05:13:41;;;;;;;12.35;5.00;;;11.50;99.90;;;;;;4175100;28;20036;-61
2023/05/17 05:15:42;;;;;;;20.30;6.70;;;11.50;99.90;;;;;;4167871;28;20029;-60
2023/05/17 05:17:43;;;;;;;18.05;7.78;;;11.60;99.90;;;;;;4175256;28;20083;-61
2023/05/17 05:19:43;;;;;;;19.52;7.30;;;11.50;99.90;;;;;;4174564;28;20140;-61
2023/05/17 05:21:45;;;;;;;12.48;6.07;;;11.60;99.90;;;;;;4170574;28;20037;-61
2023/05/17 05:23:45;;;;;;;8.43;5.63;;;11.60;99.90;;;;;;4169702;28;20373;-61
2023/05/17 05:25:46;;;;;;;12.52;5.38;;;11.60;99.90;;;;;;4170478;28;20068;-60
2023/05/17 05:27:46;;;;;;;20.17;6.45;;;11.60;99.90;;;;;;4169832;28;20030;-60
2023/05/17 05:29:47;;;;;;;16.35;6.80;;;11.60;99.90;;;;;;4172605;28;20029;-61
2023/05/17 05:31:48;;;;;;;14.25;5.82;;;11.60;99.90;;;;;;4171020;28;20025;-60
2023/05/17 05:33:48;;;;;;;12.50;4.40;;;11.60;99.90;;;;;;4173152;28;20037;-60
2023/05/17 05:35:49;;;;;;;13.55;5.38;;;11.60;99.90;;;;;;4172739;28;20056;-61
2023/05/17 05:37:50;;;;;;;15.63;5.30;;;11.70;99.90;;;;;;4173625;28;20283;-60
2023/05/17 05:39:50;;;;;;;12.13;5.20;;;11.80;99.90;;;;;;4178201;28;20033;-61
2023/05/17 05:41:51;;;;;;;12.10;5.15;;;11.80;99.90;;;;;;4173179;28;20036;-63
2023/05/17 05:43:51;;;;;;;12.48;5.05;;;11.80;99.90;;;;;;4168425;28;20425;-63
2023/05/17 05:45:52;;;;;;;12.13;4.88;;;11.90;99.90;;;;;;4172050;28;20051;-63
2023/05/17 05:47:52;;;;;;;12.95;5.63;;;11.90;99.90;;;;;;4172109;28;20040;-63
2023/05/17 05:49:53;;;;;;;9.77;4.95;;;12.00;99.90;;;;;;4174256;28;20063;-62
2023/05/17 05:51:54;;;;;;;13.63;5.10;;;12.00;99.90;;;;;;4173464;28;20415;-62
2023/05/17 05:53:55;;;;;;;12.70;5.43;;;12.10;99.90;;;;;;4171611;28;20032;-62
2023/05/17 05:55:55;;;;;;;18.30;6.50;;;12.10;99.90;;;;;;4170217;28;20025;-63
2023/05/17 05:57:56;;;;;;;13.52;5.13;;;12.20;99.90;;;;;;4176215;28;20052;-63
2023/05/17 05:59:56;;;;;;;10.13;4.40;;;12.10;99.90;;;;;;4174031;28;20059;-63
2023/05/17 06:01:57;;;;;;;14.35;4.85;;;12.20;99.90;;;;;;4172369;28;20021;-63
2023/05/17 06:03:58;;;;;;;15.95;4.80;;;12.30;99.90;;;;;;4173165;28;20033;-63
2023/05/17 06:05:58;;;;;;;14.88;5.20;;;12.40;99.90;;;;;;4171732;28;20079;-63
2023/05/17 06:07:59;;;;;;;14.00;4.65;;;12.60;99.90;;;;;;4175542;28;20495;-64
2023/05/17 06:09:59;;;;;;;13.48;4.57;;;12.80;99.90;;;;;;4174712;28;20112;-63
2023/05/17 06:12:00;;;;;;;9.60;4.45;;;13.10;99.90;;;;;;4174703;28;20044;-63
2023/05/17 06:14:00;;;;;;;10.65;4.15;;;13.40;99.90;;;;;;4177067;28;20056;-63
2023/05/17 06:16:01;;;;;;;7.38;4.05;;;13.80;99.90;;;;;;4174991;28;20086;-63
2023/05/17 06:18:02;;;;;;;11.40;4.65;;;14.10;99.90;;;;;;4175310;28;20044;-63
2023/05/17 06:20:03;;;;;;;12.73;4.18;;;14.50;99.90;;;;;;4173199;28;20131;-66
2023/05/17 06:22:03;;;;;;;10.93;3.92;;;14.80;99.90;;;;;;4171856;28;20045;-64
2023/05/17 06:24:04;;;;;;;9.13;3.63;;;15.20;99.90;;;;;;4173751;28;20786;-65
2023/05/17 06:26:09;;;;;;;9.25;3.50;;;15.50;99.90;;;;;;4177685;28;20037;-64
2023/05/17 06:28:09;;;;;;;7.95;2.83;;;15.90;99.90;;;;;;4178294;28;20036;-65
2023/05/17 06:30:11;;;;;;;9.43;3.33;;;16.30;99.90;;;;;;4172825;28;20041;-65
2023/05/17 06:32:12;;;;;;;11.25;4.05;;;16.60;99.90;;;;;;4174742;28;20037;-65
2023/05/17 06:34:13;;;;;;;8.90;3.13;;;16.90;99.90;;;;;;4173693;28;20539;-65
2023/05/17 06:36:13;;;;;;;7.95;2.72;;;17.20;99.90;;;;;;4176268;28;20083;-65
2023/05/17 06:38:14;;;;;;;12.18;3.47;;;17.40;99.90;;;;;;4177437;28;20456;-64
2023/05/17 06:40:15;;;;;;;6.70;2.97;;;17.60;99.90;;;;;;4170860;28;20033;-64
2023/05/17 06:42:15;;;;;;;6.45;2.90;;;17.70;99.90;;;;;;4178395;28;20383;-65
2023/05/17 06:44:16;;;;;;;6.68;3.13;;;17.90;99.90;;;;;;4176993;28;20143;-65
2023/05/17 06:46:17;;;;;;;9.18;3.03;;;18.00;99.90;;;;;;4170167;28;20045;-65
2023/05/17 06:48:17;;;;;;;9.35;2.95;;;18.00;99.90;;;;;;4176418;28;20060;-65
2023/05/17 06:50:18;;;;;;;6.80;2.60;;;18.10;99.90;;;;;;4170248;28;20462;-65
2023/05/17 06:52:18;;;;;;;12.57;3.15;;;17.90;99.90;;;;;;4177174;28;20082;-65
2023/05/17 06:54:19;;;;;;;7.25;2.40;;;17.90;99.90;;;;;;4176749;28;20033;-64
2023/05/17 06:56:20;;;;;;;5.60;2.13;;;17.80;99.90;;;;;;4180144;28;20086;-65
2023/05/17 06:58:20;;;;;;;8.23;2.55;;;17.90;99.90;;;;;;4178347;28;20037;-65
2023/05/17 07:00:21;;;;;;;7.07;2.30;;;17.80;99.90;;;;;;4177380;28;20068;-64
2023/05/17 07:02:22;;;;;;;5.88;1.85;;;17.80;99.90;;;;;;4178476;28;20061;-65
2023/05/17 07:04:22;;;;;;;7.55;2.33;;;17.80;99.90;;;;;;4175294;28;20059;-65
2023/05/17 07:06:23;;;;;;;9.52;2.90;;;17.80;99.90;;;;;;4176183;28;20340;-64
2023/05/17 07:08:24;;;;;;;9.68;2.17;;;17.70;99.90;;;;;;4176396;28;20110;-64
2023/05/17 07:10:24;;;;;;;8.45;2.20;;;17.50;99.90;;;;;;4177044;28;20048;-65
2023/05/17 07:12:25;;;;;;;5.75;2.20;;;17.40;99.90;;;;;;4178349;28;20045;-65
2023/05/17 07:14:25;;;;;;;9.82;2.13;;;17.40;99.90;;;;;;4171782;28;20049;-64
2023/05/17 07:16:26;;;;;;;9.68;2.20;;;17.40;99.90;;;;;;4177536;28;20446;-64
2023/05/17 07:18:26;;;;;;;10.60;3.08;;;17.30;99.90;;;;;;4177056;28;20052;-65
2023/05/17 07:20:27;;;;;;;7.80;2.00;;;17.40;99.90;;;;;;4176085;28;20041;-64
2023/05/17 07:22:28;;;;;;;5.82;2.08;;;17.40;99.90;;;;;;4168465;28;20422;-64
2023/05/17 07:24:28;;;;;;;7.50;2.00;;;17.50;99.90;;;;;;4176001;28;20128;-65
2023/05/17 07:26:29;;;;;;;7.50;2.13;;;17.40;99.90;;;;;;4170963;28;20095;-64
2023/05/17 07:28:30;;;;;;;10.23;2.40;;;17.20;99.90;;;;;;4176484;28;20108;-65
2023/05/17 07:30:31;;;;;;;8.75;2.20;;;17.10;99.90;;;;;;4177144;28;20041;-64
2023/05/17 07:32:31;;;;;;;7.47;2.03;;;17.10;99.90;;;;;;4177630;28;20029;-65
2023/05/17 07:34:32;;;;;;;5.32;2.10;;;17.10;99.90;;;;;;4176344;28;20047;-64
2023/05/17 07:36:33;;;;;;;8.85;2.75;;;17.10;99.90;;;;;;4176982;28;20033;-65
2023/05/17 07:38:34;;;;;;;7.68;1.90;;;17.00;99.90;;;;;;4176424;28;20029;-65
2023/05/17 07:40:35;;;;;;;7.22;2.13;;;16.90;99.90;;;;;;4173934;28;20083;-66
2023/05/17 07:42:35;;;;;;;9.73;2.30;;;16.80;99.90;;;;;;4177005;28;20045;-66
2023/05/17 07:44:36;;;;;;;5.88;2.03;;;16.80;99.90;;;;;;4176381;28;20040;-65
2023/05/17 07:46:36;;;;;;;7.28;1.98;;;16.80;99.90;;;;;;4173456;28;20053;-65
2023/05/17 07:48:37;;;;;;;11.85;2.70;;;16.80;99.90;;;;;;4176136;28;20033;-66
2023/05/17 07:50:38;;;;;;;7.35;2.50;;;16.90;99.90;;;;;;4173211;28;20025;-65
2023/05/17 07:52:38;;;;;;;6.72;2.00;;;16.70;99.90;;;;;;4174320;28;20399;-65
2023/05/17 07:54:39;;;;;;;9.45;2.30;;;16.60;99.90;;;;;;4177451;28;20116;-66
2023/05/17 07:56:40;;;;;;;8.00;2.10;;;16.70;99.90;;;;;;4175679;28;20033;-65
2023/05/17 07:58:40;;;;;;;7.38;1.92;;;16.70;99.90;;;;;;4175889;28;20037;-66
2023/05/17 08:00:41;;;;;;;5.88;2.13;;;16.70;99.90;;;;;;4174365;28;20111;-65
2023/05/17 08:02:42;;;;;;;5.75;1.50;;;16.80;99.90;;;;;;4175455;28;20041;-65
2023/05/17 08:04:42;;;;;;;7.40;2.15;;;16.80;99.90;;;;;;4173269;28;20033;-65
2023/05/17 08:06:45;;;;;;;10.55;2.47;;;16.80;99.90;;;;;;4174714;28;20028;-66
2023/05/17 08:08:46;;;;;;;6.05;1.83;;;16.70;99.90;;;;;;4174359;28;20044;-64
2023/05/17 08:10:46;;;;;;;14.52;2.80;;;16.60;99.90;;;;;;4175023;28;20054;-65
2023/05/17 08:12:47;;;;;;;12.40;2.65;;;16.60;99.90;;;;;;4172034;28;20078;-65
2023/05/17 08:14:47;;;;;;;5.60;1.90;;;16.50;99.90;;;;;;4174096;28;20037;-65
2023/05/17 08:16:50;;;;;;;9.32;2.25;;;16.50;99.90;;;;;;4175545;28;20033;-65
2023/05/17 08:18:51;;;;;;;;;;;16.50;99.90;;;;;;4175766;28;20045;-66
2023/05/17 08:20:51;;;;;;;11.00;2.60;;;16.40;99.90;;;;;;4173865;28;19916;-65
2023/05/17 08:22:52;;;;;;;8.32;2.08;;;16.20;99.90;;;;;;4171868;28;20041;-65
2023/05/17 08:24:53;;;;;;;8.70;2.17;;;16.20;99.90;;;;;;4174963;28;20036;-65
2023/05/17 08:26:53;;;;;;;9.35;2.22;;;16.10;99.90;;;;;;4175974;28;20025;-65
2023/05/17 08:28:54;;;;;;;15.88;3.08;;;16.00;99.90;;;;;;4175174;28;20112;-65
2023/05/17 08:30:54;;;;;;;11.00;2.25;;;16.00;99.90;;;;;;4171041;28;20102;-65
2023/05/17 08:32:55;;;;;;;10.27;2.17;;;15.90;99.90;;;;;;4176722;28;20163;-65
2023/05/17 08:34:56;;;;;;;5.78;1.85;;;15.80;99.90;;;;;;4172885;28;20036;-65
2023/05/17 08:36:57;;;;;;;9.02;2.08;;;15.70;99.90;;;;;;4174418;28;20032;-65
2023/05/17 08:38:58;;;;;;;9.77;2.03;;;15.60;99.90;;;;;;4174486;28;20091;-65
2023/05/17 08:41:00;;;;;;;7.43;2.17;;;15.60;99.90;;;;;;4175934;28;20037;-65
2023/05/17 08:43:01;;;;;;;8.32;2.35;;;15.60;99.90;;;;;;4176784;28;20395;-64
2023/05/17 08:45:04;;;;;;;7.40;2.05;;;15.60;99.90;;;;;;4175969;28;20044;-66
2023/05/17 08:47:10;;;;;;;9.00;2.28;;;15.60;99.90;;;;;;4174374;28;20534;-65
2023/05/17 08:49:11;;;;;;;7.60;2.22;;;15.60;99.90;;;;;;4175801;28;20116;-65
2023/05/17 08:51:13;;;;;;;10.98;2.58;;;15.60;99.90;;;;;;4174611;28;20091;-65
2023/05/17 08:53:15;;;;;;;6.63;1.70;;;15.60;99.90;;;;;;4174909;28;20488;-65
2023/05/17 08:55:17;;;;;;;10.10;2.13;;;15.50;99.90;;;;;;4171631;28;20025;-65
2023/05/17 08:57:17;;;;;;;7.78;1.80;;;15.60;99.90;;;;;;4177030;28;20059;-65
2023/05/17 08:59:18;;;;;;;9.23;2.22;;;15.70;99.90;;;;;;4171825;28;20041;-65
2023/05/17 09:01:20;;;;;;;4.53;1.70;;;15.90;99.90;;;;;;4171890;28;20439;-65
2023/05/17 09:03:22;;;;;;;8.18;2.10;;;16.00;99.90;;;;;;4175484;28;20437;-64
2023/05/17 09:05:24;;;;;;;6.57;1.88;;;16.20;99.90;;;;;;4171514;28;20036;-65
2023/05/17 09:07:24;;;;;;;6.50;1.80;;;16.30;99.90;;;;;;4175175;28;20078;-65
2023/05/17 09:09:26;;;;;;;7.63;1.90;;;16.40;99.90;;;;;;4176732;28;21528;-64
2023/05/17 09:11:29;;;;;;;10.43;2.03;;;16.40;99.90;;;;;;4174476;28;20476;-65
2023/05/17 09:13:30;;;;;;;6.00;1.92;;;16.50;99.90;;;;;;4174131;28;20388;-65
2023/05/17 09:15:33;;;;;;;6.63;1.60;;;16.60;99.90;;;;;;4172651;28;20034;-65
2023/05/17 09:17:33;;;;;;;4.93;1.83;;;16.60;99.90;;;;;;4175237;28;20464;-64
2023/05/17 09:19:43;;;;;;;6.47;1.83;;;16.60;99.90;;;;;;4174384;28;20040;-65
2023/05/17 09:21:46;;;;;;;7.57;2.08;;;16.60;99.90;;;;;;4172327;28;20037;-65
2023/05/17 09:23:47;;;;;;;7.07;1.85;;;16.60;99.90;;;;;;4178075;28;20447;-65
2023/05/17 09:25:48;;;;;;;7.25;1.90;;;16.50;99.90;;;;;;4175832;28;20025;-64
2023/05/17 09:27:53;;;;;;;4.63;1.45;;;16.50;99.90;;;;;;4176432;28;20037;-65
2023/05/17 09:29:53;;;;;;;6.05;2.10;;;16.60;99.90;;;;;;4173734;28;20109;-65
2023/05/17 09:31:54;;;;;;;8.18;2.00;;;16.60;99.90;;;;;;4175793;28;20410;-64
2023/05/17 09:33:58;;;;;;;6.65;1.98;;;16.70;99.90;;;;;;4172273;28;20029;-65
2023/05/17 09:36:00;;;;;;;6.10;1.80;;;16.70;99.90;;;;;;4173554;28;20078;-64
2023/05/17 09:38:12;;;;;;;8.45;2.17;;;16.80;99.90;;;;;;4172515;28;20067;-65
2023/05/17 09:40:25;;;;;;;4.40;1.33;;;16.80;99.90;;;;;;4166615;28;20043;-65
2023/05/17 09:42:26;;;;;;;;;;;16.80;99.90;;;;;;4174767;28;20120;-64
2023/05/17 09:44:26;;;;;;;13.35;2.90;;;16.90;99.90;;;;;;4174080;28;20324;-65
2023/05/17 09:46:37;;;;;;;6.90;2.33;;;16.90;99.90;;;;;;4167353;28;20052;-65
2023/05/17 09:48:38;;;;;;;4.72;1.88;;;17.00;99.90;;;;;;4175767;28;20025;-65
2023/05/17 09:50:46;;;;;;;8.23;2.25;;;16.90;99.90;;;;;;4172280;28;20387;-65
2023/05/17 09:52:46;;;;;;;6.28;2.00;;;16.60;99.90;;;;;;4174043;28;20029;-65
2023/05/17 09:54:54;;;;;;;8.85;2.13;;;16.80;99.90;;;;;;4174274;28;20036;-65
2023/05/17 09:56:57;;;;;;;7.43;1.60;;;16.90;99.90;;;;;;4174697;28;20042;-65
2023/05/17 09:59:00;;;;;;;9.13;1.80;;;16.90;99.90;;;;;;4177598;28;20029;-65
2023/05/17 10:01:03;;;;;;;5.03;1.60;;;16.70;99.90;;;;;;4181771;28;20108;-64
2023/05/17 10:03:05;;;;;;;9.65;2.40;;;16.80;99.90;;;;;;4178956;28;20037;-65
2023/05/17 10:05:14;;;;;;;10.13;1.85;;;17.00;99.90;;;;;;4179021;28;20045;-66
2023/05/17 10:07:20;;;;;;;8.98;2.30;;;17.10;99.90;;;;;;4176885;28;20061;-65
2023/05/17 10:09:21;;;;;;;6.82;2.17;;;17.10;99.90;;;;;;4178443;28;20040;-65
2023/05/17 10:11:27;;;;;;;8.05;2.05;;;17.10;99.90;;;;;;4185214;28;20064;-65
2023/05/17 10:13:33;;;;;;;6.85;2.13;;;17.10;99.90;;;;;;4173896;28;20095;-65
2023/05/17 10:15:35;;;;;;;6.40;2.20;;;17.10;99.90;;;;;;4176362;28;20037;-65
2023/05/17 10:17:40;;;;;;;4.68;1.35;;;17.10;99.90;;;;;;4177166;28;20029;-64
2023/05/17 10:19:41;;;;;;;8.60;2.10;;;17.20;99.90;;;;;;4175504;28;20052;-65
2023/05/17 10:21:42;;;;;;;4.93;1.50;;;17.20;99.90;;;;;;4175087;28;20506;-67
2023/05/17 10:23:45;;;;;;;4.82;1.35;;;17.10;99.00;;;;;;4178643;28;20036;-66
2023/05/17 10:25:46;;;;;;;7.10;1.73;;;17.20;99.90;;;;;;4177381;28;20044;-66
2023/05/17 10:27:49;;;;;;;6.25;1.48;;;17.30;99.90;;;;;;4179172;28;20468;-66
2023/05/17 10:29:52;;;;;;;8.35;2.10;;;17.20;99.00;;;;;;4178954;28;20044;-66
2023/05/17 10:31:53;;;;;;;4.35;1.48;;;17.10;98.50;;;;;;4173009;28;20017;-64